Peasedown Saint John, United Kingdom
Current Conditions -  °F | °C
As of 5:50 PM on Monday 24 Nov 2014 (Local Time) from EGGD Reporting Station
Clear Clear  
Wind Chill: 39°   Ceiling: Unl
Heat Index: 39°   Visibility: 6mi
Dew Point: 36°   Wind: 2mph
Humidity: 87%   Direction: 50°NE
Pressure: 30.33"   Gusts: NA
Location:  51.32°N, 2.42°W
Report Text: EGGD 241750Z 05002KT CAVOK 04/02 Q1027
Loading
Personal Weather Stations






























Interactive Weather Map New forecast layout! Learn more

10-Day Weather Forecast

Advertisements
Track Severe Weather on mobile